KSYN/SYN METAR and TAF weather

Enter ICAO airport designator
Station Type Date Time Source
KSYN METAR 2020/09/28 09:15 UTC NOAA

KSYN 280915Z AUTO 28005KT 10SM OVC080 11/09 A2980 RMK AO2 T01090091


Station Type Date Time Source
KSYN Decoded METAR 2020/09/28 09:15 UTC NOAA

Stanton, Stanton Airfield, MN, United States (KSYN) 44-28-31N 093-00-58W
Sep 28, 2020 - 05:15 AM EDT / 2020.09.28 0915 UTC
Wind: from the W (280 degrees) at 6 MPH (5 KT):0
Visibility: 10 mile(s):0
Sky conditions: overcast
Temperature: 51.6 F (10.9 C)
Dew Point: 48.4 F (9.1 C)
Relative Humidity: 88%
Pressure (altimeter): 29.8 in. Hg (1009 hPa)
ob: KSYN 280915Z AUTO 28005KT 10SM OVC080 11/09 A2980 RMK AO2 T01090091
cycle: 9

Station Type Date Time Source
KSYN TAF UTC NOAA

Error!

Example: see airport list